createdAt,value
2023-09-25T00:00:26.586Z,14.60
2023-09-25T00:03:01.363Z,14.70
2023-09-25T00:05:35.626Z,14.70
2023-09-25T00:08:09.445Z,14.70
2023-09-25T00:10:44.425Z,14.70
2023-09-25T00:13:18.024Z,14.70
2023-09-25T00:15:51.675Z,14.70
2023-09-25T00:18:25.357Z,14.70
2023-09-25T00:20:59.561Z,14.70
2023-09-25T00:23:33.157Z,14.70
2023-09-25T00:26:09.002Z,14.70
2023-09-25T00:28:48.489Z,14.70
2023-09-25T00:31:22.943Z,14.80
2023-09-25T00:33:57.552Z,14.80
2023-09-25T00:36:31.291Z,14.80
2023-09-25T00:39:07.429Z,14.80
2023-09-25T00:41:42.368Z,14.80
2023-09-25T00:44:17.675Z,14.80
2023-09-25T00:46:51.596Z,14.80
2023-09-25T00:49:25.229Z,14.80
2023-09-25T00:52:00.146Z,14.90
2023-09-25T00:54:41.433Z,14.90
2023-09-25T00:57:17.633Z,14.90
2023-09-25T00:59:52.125Z,14.90
2023-09-25T01:02:26.068Z,14.90
2023-09-25T01:05:01.453Z,14.90
2023-09-25T01:07:35.112Z,14.90
2023-09-25T01:10:11.259Z,14.90
2023-09-25T01:12:46.909Z,14.90
2023-09-25T01:15:21.005Z,14.90
2023-09-25T01:17:54.778Z,14.90
2023-09-25T01:20:29.393Z,14.90
2023-09-25T01:23:04.757Z,14.90
2023-09-25T01:25:38.371Z,15.00
2023-09-25T01:28:11.913Z,15.00
2023-09-25T01:30:46.146Z,15.00
2023-09-25T01:33:19.789Z,15.00
2023-09-25T01:35:53.408Z,15.00
2023-09-25T01:38:28.602Z,15.00
2023-09-25T01:41:02.564Z,15.00
2023-09-25T01:43:36.227Z,15.00
2023-09-25T01:46:09.905Z,15.00
2023-09-25T01:48:43.546Z,15.00
2023-09-25T01:51:17.169Z,15.00
2023-09-25T01:53:52.779Z,15.10
2023-09-25T01:56:26.753Z,15.10
2023-09-25T01:59:00.335Z,15.10
2023-09-25T02:01:33.951Z,15.10
2023-09-25T02:04:08.579Z,15.10
2023-09-25T02:06:42.390Z,15.10
2023-09-25T02:09:17.565Z,15.10
2023-09-25T02:11:51.269Z,15.10
2023-09-25T02:14:24.856Z,15.10
2023-09-25T02:16:58.392Z,15.10
2023-09-25T02:19:32.002Z,15.10
2023-09-25T02:22:07.812Z,15.10
2023-09-25T02:24:43.483Z,15.10
2023-09-25T02:27:17.144Z,15.10
2023-09-25T02:29:50.790Z,15.20
2023-09-25T02:32:24.555Z,15.20
2023-09-25T02:34:59.146Z,15.20
2023-09-25T02:37:33.869Z,15.20
2023-09-25T02:40:10.731Z,15.20
2023-09-25T02:42:46.266Z,15.20
2023-09-25T02:45:20.359Z,15.20
2023-09-25T02:47:54.057Z,15.20
2023-09-25T02:50:28.192Z,15.20
2023-09-25T02:53:01.740Z,15.20
2023-09-25T02:55:36.723Z,15.30
2023-09-25T02:58:10.406Z,15.30
2023-09-25T03:00:44.059Z,15.30
2023-09-25T03:03:17.815Z,15.30
2023-09-25T03:05:51.803Z,15.30
2023-09-25T03:08:25.398Z,15.30
2023-09-25T03:11:00.380Z,15.20
2023-09-25T03:13:34.490Z,15.20
2023-09-25T03:16:15.377Z,15.20
2023-09-25T03:18:49.290Z,15.30
2023-09-25T03:21:23.082Z,15.30
2023-09-25T03:23:56.674Z,15.30
2023-09-25T03:26:31.665Z,15.30
2023-09-25T03:29:07.459Z,15.30
2023-09-25T03:31:41.186Z,15.30
2023-09-25T03:34:15.078Z,15.30
2023-09-25T03:36:48.704Z,15.30
2023-09-25T03:39:22.356Z,15.30
2023-09-25T03:41:57.380Z,15.30
2023-09-25T03:44:30.985Z,15.30
2023-09-25T03:47:04.668Z,15.30
2023-09-25T03:49:40.604Z,15.30
2023-09-25T03:52:14.877Z,15.40
2023-09-25T03:54:48.428Z,15.40
2023-09-25T03:57:23.440Z,15.30
2023-09-25T03:59:57.060Z,15.30
2023-09-25T04:02:31.854Z,15.30
2023-09-25T04:05:05.895Z,15.40
2023-09-25T04:07:39.452Z,15.40
2023-09-25T04:10:13.243Z,15.40
2023-09-25T04:12:48.506Z,15.40
2023-09-25T04:15:24.307Z,15.40
2023-09-25T04:17:58.917Z,15.40
2023-09-25T04:20:33.310Z,15.40
2023-09-25T04:23:06.915Z,15.40
2023-09-25T04:25:40.596Z,15.40
2023-09-25T04:28:16.132Z,15.40
2023-09-25T04:30:50.349Z,15.40
2023-09-25T04:33:24.170Z,15.40
2023-09-25T04:35:59.967Z,15.40
2023-09-25T04:38:34.016Z,15.40
2023-09-25T04:41:07.685Z,15.50
2023-09-25T04:43:42.999Z,15.50
2023-09-25T04:46:16.903Z,15.50
2023-09-25T04:48:53.148Z,15.50
2023-09-25T04:51:26.806Z,15.60
2023-09-25T04:54:01.278Z,15.60
2023-09-25T04:56:34.862Z,15.60
2023-09-25T04:59:09.855Z,15.60
2023-09-25T05:01:46.676Z,15.60
2023-09-25T05:04:20.367Z,15.60
2023-09-25T05:06:54.106Z,15.60
2023-09-25T05:09:27.813Z,15.60
2023-09-25T05:12:01.469Z,15.60
2023-09-25T05:14:36.523Z,15.70
2023-09-25T05:17:10.400Z,15.60
2023-09-25T05:19:43.938Z,15.60
2023-09-25T05:22:17.927Z,15.60
2023-09-25T05:24:51.485Z,15.70
2023-09-25T05:27:26.102Z,15.70
2023-09-25T05:30:01.165Z,15.70
2023-09-25T05:32:35.072Z,15.70
2023-09-25T05:35:09.630Z,15.80
2023-09-25T05:37:45.164Z,15.80
2023-09-25T05:40:19.261Z,15.80
2023-09-25T05:42:53.616Z,15.80
2023-09-25T05:45:29.235Z,15.80
2023-09-25T05:48:02.952Z,15.80
2023-09-25T05:50:38.143Z,15.80
2023-09-25T05:53:11.838Z,15.80
2023-09-25T05:55:45.435Z,15.80
2023-09-25T05:58:19.016Z,15.80
2023-09-25T06:00:54.336Z,15.90
2023-09-25T06:03:28.171Z,15.90
2023-09-25T06:06:01.950Z,15.90
2023-09-25T06:08:35.511Z,16.00
2023-09-25T06:11:09.943Z,16.00
2023-09-25T06:13:43.543Z,16.00
2023-09-25T06:16:18.703Z,16.10
2023-09-25T06:18:52.501Z,16.10
2023-09-25T06:21:26.478Z,16.10
2023-09-25T06:24:00.097Z,16.20
2023-09-25T06:26:33.633Z,16.20
2023-09-25T06:29:07.419Z,16.20
2023-09-25T06:31:57.978Z,16.20
2023-09-25T06:34:34.513Z,16.30
2023-09-25T06:37:08.302Z,16.30
2023-09-25T06:39:41.949Z,16.40
2023-09-25T06:42:15.603Z,16.40
2023-09-25T06:44:49.653Z,16.50
2023-09-25T06:47:24.748Z,16.50
2023-09-25T06:49:58.338Z,16.60
2023-09-25T06:52:32.178Z,16.60
2023-09-25T06:55:06.541Z,16.60
2023-09-25T06:57:40.466Z,16.60
2023-09-25T07:00:15.523Z,16.60
2023-09-25T07:02:51.449Z,16.70
2023-09-25T07:05:25.313Z,16.80
2023-09-25T07:08:00.758Z,16.80
2023-09-25T07:10:37.772Z,16.90
2023-09-25T07:13:11.576Z,16.90
2023-09-25T07:15:45.792Z,17.00
2023-09-25T07:18:21.733Z,17.10
2023-09-25T07:20:55.950Z,17.10
2023-09-25T07:23:30.449Z,17.20
2023-09-25T07:26:05.931Z,17.20
2023-09-25T07:28:39.737Z,17.20
2023-09-25T07:31:13.405Z,17.30
2023-09-25T07:33:49.316Z,17.30
2023-09-25T07:36:23.155Z,17.40
2023-09-25T07:38:56.734Z,17.40
2023-09-25T07:41:30.271Z,17.50
2023-09-25T07:44:09.081Z,17.50
2023-09-25T07:46:42.833Z,17.60
2023-09-25T07:49:19.506Z,17.70
2023-09-25T07:51:53.535Z,17.70
2023-09-25T07:54:27.169Z,17.80
2023-09-25T07:57:01.393Z,17.90
2023-09-25T07:59:34.965Z,17.90
2023-09-25T08:02:09.455Z,18.00
2023-09-25T08:04:44.905Z,18.00
2023-09-25T08:07:20.210Z,18.10
2023-09-25T08:09:56.684Z,18.20
2023-09-25T08:12:30.337Z,18.20
2023-09-25T08:15:04.104Z,18.20
2023-09-25T08:17:37.768Z,18.30
2023-09-25T08:20:22.043Z,18.40
2023-09-25T08:22:56.560Z,18.40
2023-09-25T08:25:31.736Z,18.40
2023-09-25T08:28:09.059Z,18.50
2023-09-25T08:30:43.864Z,18.50
2023-09-25T08:33:17.962Z,18.50
2023-09-25T08:35:53.510Z,18.60
2023-09-25T08:38:28.689Z,18.70
2023-09-25T08:41:02.876Z,18.70
2023-09-25T08:43:42.569Z,18.80
2023-09-25T08:46:17.025Z,18.90
2023-09-25T08:48:58.000Z,19.00
2023-09-25T08:51:36.840Z,19.10
2023-09-25T08:54:11.213Z,19.10
2023-09-25T08:56:46.328Z,19.20
2023-09-25T08:59:21.136Z,19.30
2023-09-25T09:01:54.699Z,19.30
2023-09-25T09:04:28.359Z,19.40
2023-09-25T09:07:03.695Z,19.40
2023-09-25T09:09:37.709Z,19.50
2023-09-25T09:12:11.525Z,19.50
2023-09-25T09:14:46.822Z,19.50
2023-09-25T09:17:20.347Z,19.50
2023-09-25T09:19:54.625Z,19.50
2023-09-25T09:22:29.743Z,19.50
2023-09-25T09:25:03.569Z,19.50
2023-09-25T09:27:37.831Z,19.60
2023-09-25T09:30:22.653Z,19.60
2023-09-25T09:32:56.418Z,19.70
2023-09-25T09:35:29.904Z,19.70
2023-09-25T09:38:07.120Z,19.70
2023-09-25T09:40:40.790Z,19.80
2023-09-25T09:43:14.651Z,19.80
2023-09-25T09:45:51.264Z,19.80
2023-09-25T09:48:26.183Z,19.80
2023-09-25T09:51:02.706Z,19.80
2023-09-25T09:53:40.015Z,19.90
2023-09-25T09:56:16.340Z,19.90
2023-09-25T09:58:51.059Z,20.00
2023-09-25T10:01:26.537Z,20.00
2023-09-25T10:04:00.740Z,20.00
2023-09-25T10:06:38.569Z,20.10
2023-09-25T10:09:15.895Z,20.10
2023-09-25T10:11:50.848Z,20.10
2023-09-25T10:14:26.480Z,20.20
2023-09-25T10:17:01.186Z,20.20
2023-09-25T10:19:54.364Z,20.30
2023-09-25T10:22:31.082Z,20.40
2023-09-25T10:25:12.706Z,20.40
2023-09-25T10:27:47.305Z,20.40
2023-09-25T10:30:21.552Z,20.40
2023-09-25T10:32:57.726Z,20.30
2023-09-25T10:35:45.191Z,20.30
2023-09-25T10:38:31.933Z,20.30
2023-09-25T10:41:08.767Z,20.40
2023-09-25T10:43:43.249Z,20.40
2023-09-25T10:46:18.461Z,20.40
2023-09-25T10:48:52.867Z,20.40
2023-09-25T10:51:26.596Z,20.40
2023-09-25T10:54:00.191Z,20.30
2023-09-25T10:56:36.080Z,20.30
2023-09-25T10:59:09.978Z,20.40
2023-09-25T11:01:43.958Z,20.40
2023-09-25T11:04:17.679Z,20.40
2023-09-25T11:06:52.596Z,20.50
2023-09-25T11:09:29.065Z,20.50
2023-09-25T11:12:04.448Z,20.50
2023-09-25T11:14:38.877Z,20.60
2023-09-25T11:17:12.442Z,20.60
2023-09-25T11:19:47.302Z,20.70
2023-09-25T11:22:22.337Z,20.70
2023-09-25T11:24:56.657Z,20.80
2023-09-25T11:27:31.985Z,20.70
2023-09-25T11:30:12.605Z,20.80
2023-09-25T11:32:46.223Z,20.80
2023-09-25T11:35:20.521Z,20.80
2023-09-25T11:38:01.437Z,20.90
2023-09-25T11:40:35.238Z,20.90
2023-09-25T11:43:10.817Z,20.90
2023-09-25T11:45:45.093Z,20.90
2023-09-25T11:48:19.808Z,20.90
2023-09-25T11:50:53.647Z,21.00
2023-09-25T11:53:27.963Z,21.10
2023-09-25T11:56:01.649Z,21.30
2023-09-25T11:58:36.710Z,21.40
2023-09-25T12:01:11.371Z,21.70
2023-09-25T12:03:45.139Z,21.90
2023-09-25T12:06:18.720Z,22.10
2023-09-25T12:08:52.337Z,22.20
2023-09-25T12:11:25.917Z,22.50
2023-09-25T12:14:01.459Z,22.70
2023-09-25T12:16:35.389Z,22.90
2023-09-25T12:19:10.081Z,23.20
2023-09-25T12:21:43.768Z,23.50
2023-09-25T12:24:20.284Z,23.70
2023-09-25T12:26:54.346Z,24.00
2023-09-25T12:29:29.882Z,24.30
2023-09-25T12:32:03.926Z,24.50
2023-09-25T12:34:37.602Z,24.60
2023-09-25T12:37:14.111Z,24.70
2023-09-25T12:39:47.775Z,24.80
2023-09-25T12:42:22.496Z,24.90
2023-09-25T12:44:57.948Z,25.00
2023-09-25T12:47:31.535Z,25.20
2023-09-25T12:50:05.606Z,25.40
2023-09-25T12:52:39.802Z,25.50
2023-09-25T12:55:13.353Z,25.60
2023-09-25T12:57:49.512Z,25.80
2023-09-25T13:00:26.430Z,25.90
2023-09-25T13:03:00.306Z,26.00
2023-09-25T13:05:34.674Z,26.10
2023-09-25T13:08:08.551Z,26.10
2023-09-25T13:10:42.215Z,26.00
2023-09-25T13:13:15.970Z,26.00
2023-09-25T13:15:51.103Z,25.90
2023-09-25T13:18:24.805Z,25.90
2023-09-25T13:20:58.422Z,25.90
2023-09-25T13:23:32.604Z,25.90
2023-09-25T13:26:06.188Z,26.00
2023-09-25T13:28:39.739Z,26.00
2023-09-25T13:31:14.930Z,26.00
2023-09-25T13:33:49.145Z,26.00
2023-09-25T13:36:22.886Z,25.90
2023-09-25T13:38:56.455Z,25.80
2023-09-25T13:41:30.378Z,25.70
2023-09-25T13:44:04.025Z,25.70
2023-09-25T13:46:40.070Z,25.70
2023-09-25T13:49:14.213Z,25.60
2023-09-25T13:51:48.525Z,25.60
2023-09-25T13:54:22.149Z,25.50
2023-09-25T13:56:57.637Z,25.50
2023-09-25T13:59:34.584Z,25.50
2023-09-25T14:02:10.026Z,25.50
2023-09-25T14:04:43.799Z,25.50
2023-09-25T14:07:17.390Z,25.60
2023-09-25T14:09:50.948Z,25.70
2023-09-25T14:12:24.746Z,25.70
2023-09-25T14:14:58.424Z,25.70
2023-09-25T14:17:33.456Z,25.70
2023-09-25T14:20:08.076Z,25.70
2023-09-25T14:22:43.312Z,25.70
2023-09-25T14:25:17.524Z,25.70
2023-09-25T14:27:52.088Z,25.60
2023-09-25T14:30:25.710Z,25.50
2023-09-25T14:33:00.839Z,25.30
2023-09-25T14:35:34.389Z,25.20
2023-09-25T14:38:07.924Z,25.10
2023-09-25T14:40:41.507Z,25.00
2023-09-25T14:43:15.111Z,24.90
2023-09-25T14:45:50.267Z,24.80
2023-09-25T14:48:26.690Z,24.60
2023-09-25T14:51:02.843Z,24.50
2023-09-25T14:53:36.562Z,24.30
2023-09-25T14:56:12.260Z,24.10
2023-09-25T14:58:47.431Z,24.00
2023-09-25T15:01:21.106Z,23.80
2023-09-25T15:03:56.171Z,23.60
2023-09-25T15:06:29.904Z,23.40
2023-09-25T15:09:03.518Z,23.30
2023-09-25T15:11:37.290Z,23.10
2023-09-25T15:14:10.970Z,22.90
2023-09-25T15:16:44.501Z,22.80
2023-09-25T15:19:19.541Z,22.60
2023-09-25T15:21:53.175Z,22.50
2023-09-25T15:24:26.959Z,22.40
2023-09-25T15:27:00.539Z,22.20
2023-09-25T15:29:34.074Z,22.10
2023-09-25T15:32:11.536Z,22.00
2023-09-25T15:34:47.283Z,21.80
2023-09-25T15:37:21.167Z,21.70
2023-09-25T15:39:54.851Z,21.60
2023-09-25T15:42:28.510Z,21.50
2023-09-25T15:45:02.114Z,21.40
2023-09-25T15:47:35.757Z,21.30
2023-09-25T15:50:12.285Z,21.10
2023-09-25T15:52:45.865Z,21.00
2023-09-25T15:55:19.515Z,20.80
2023-09-25T15:57:53.814Z,20.60
2023-09-25T16:00:28.869Z,20.50
2023-09-25T16:03:02.594Z,20.30
2023-09-25T16:05:38.118Z,20.20
2023-09-25T16:08:11.667Z,20.20
2023-09-25T16:10:45.240Z,20.10
2023-09-25T16:13:18.766Z,20.10
2023-09-25T16:15:52.426Z,20.00
2023-09-25T16:18:26.272Z,19.90
2023-09-25T16:21:05.693Z,19.80
2023-09-25T16:23:39.446Z,19.70
2023-09-25T16:26:13.365Z,19.70
2023-09-25T16:28:47.008Z,19.60
2023-09-25T16:31:20.806Z,19.60
2023-09-25T16:33:54.491Z,19.50
2023-09-25T16:36:29.455Z,19.40
2023-09-25T16:39:03.565Z,19.40
2023-09-25T16:41:37.104Z,19.30
2023-09-25T16:44:10.753Z,19.30
2023-09-25T16:46:44.484Z,19.20
2023-09-25T16:49:18.084Z,19.20
2023-09-25T16:51:53.144Z,19.20
2023-09-25T16:54:26.769Z,19.10
2023-09-25T16:57:00.261Z,19.00
2023-09-25T16:59:35.269Z,18.90
2023-09-25T17:02:08.812Z,18.90
2023-09-25T17:04:42.508Z,18.90
2023-09-25T17:07:18.148Z,18.90
2023-09-25T17:09:51.774Z,18.90
2023-09-25T17:12:25.537Z,18.80
2023-09-25T17:14:59.108Z,18.80
2023-09-25T17:17:32.803Z,18.80
2023-09-25T17:20:07.559Z,18.80
2023-09-25T17:22:42.478Z,18.80
2023-09-25T17:25:16.161Z,18.80
2023-09-25T17:27:50.026Z,18.80
2023-09-25T17:30:24.877Z,18.80
2023-09-25T17:32:58.455Z,18.80
2023-09-25T17:35:32.259Z,18.80
2023-09-25T17:38:07.302Z,18.70
2023-09-25T17:40:41.019Z,18.70
2023-09-25T17:43:14.643Z,18.70
2023-09-25T17:45:50.001Z,18.70
2023-09-25T17:48:23.651Z,18.70
2023-09-25T17:50:57.674Z,18.60
2023-09-25T17:53:32.766Z,18.70
2023-09-25T17:56:06.601Z,18.70
2023-09-25T17:58:40.192Z,18.70
2023-09-25T18:01:13.904Z,18.60
2023-09-25T18:03:47.784Z,18.70
2023-09-25T18:06:21.394Z,18.70
2023-09-25T18:08:57.035Z,18.60
2023-09-25T18:11:30.624Z,18.60
2023-09-25T18:14:06.110Z,18.60
2023-09-25T18:16:39.745Z,18.60
2023-09-25T18:19:13.500Z,18.60
2023-09-25T18:21:47.060Z,18.60
2023-09-25T18:24:22.700Z,18.50
2023-09-25T18:26:56.876Z,18.50
2023-09-25T18:29:32.718Z,18.50
2023-09-25T18:32:06.595Z,18.50
2023-09-25T18:34:42.922Z,18.50
2023-09-25T18:37:16.555Z,18.50
2023-09-25T18:39:51.570Z,18.50
2023-09-25T18:42:26.458Z,18.50
2023-09-25T18:45:00.345Z,18.50
2023-09-25T18:47:36.215Z,18.50
2023-09-25T18:50:10.448Z,18.50
2023-09-25T18:52:44.057Z,18.50
2023-09-25T18:55:19.092Z,18.50
2023-09-25T18:57:52.759Z,18.50
2023-09-25T19:00:26.749Z,18.50
2023-09-25T19:03:00.620Z,18.50
2023-09-25T19:05:35.192Z,18.50
2023-09-25T19:08:09.058Z,18.50
2023-09-25T19:10:44.625Z,18.60
2023-09-25T19:13:38.864Z,18.50
2023-09-25T19:16:14.521Z,18.50
2023-09-25T19:18:49.100Z,18.60
2023-09-25T19:21:22.702Z,18.50
2023-09-25T19:23:57.053Z,18.50
2023-09-25T19:26:32.118Z,18.50
2023-09-25T19:29:05.761Z,18.50
2023-09-25T19:31:43.886Z,18.50
2023-09-25T19:34:19.327Z,18.50
2023-09-25T19:36:53.047Z,18.50
2023-09-25T19:39:26.689Z,18.50
2023-09-25T19:42:01.716Z,18.50
2023-09-25T19:44:35.279Z,18.50
2023-09-25T19:47:08.841Z,18.40
2023-09-25T19:49:42.389Z,18.50
2023-09-25T19:52:16.163Z,18.50
2023-09-25T19:54:51.523Z,18.50
2023-09-25T19:57:26.779Z,18.50
2023-09-25T20:00:00.458Z,18.50
2023-09-25T20:02:33.984Z,18.50
2023-09-25T20:05:08.779Z,18.40
2023-09-25T20:07:43.384Z,18.40
2023-09-25T20:10:18.789Z,18.40
2023-09-25T20:12:53.948Z,18.40
2023-09-25T20:15:27.595Z,18.40
2023-09-25T20:18:01.261Z,18.40
2023-09-25T20:20:35.361Z,18.40
2023-09-25T20:23:08.917Z,18.40
2023-09-25T20:25:42.668Z,18.40
2023-09-25T20:28:18.131Z,18.40
2023-09-25T20:30:52.082Z,18.40
2023-09-25T20:33:26.356Z,18.40
2023-09-25T20:36:00.108Z,18.40
2023-09-25T20:38:34.504Z,18.40
2023-09-25T20:41:08.205Z,18.40
2023-09-25T20:43:43.535Z,18.40
2023-09-25T20:46:17.200Z,18.40
2023-09-25T20:48:51.343Z,18.40
2023-09-25T20:51:25.012Z,18.40
2023-09-25T20:53:58.568Z,18.30
2023-09-25T20:56:32.323Z,18.40
2023-09-25T20:59:07.335Z,18.30
2023-09-25T21:01:41.064Z,18.30
2023-09-25T21:04:14.824Z,18.30
2023-09-25T21:06:48.565Z,18.30
2023-09-25T21:09:22.284Z,18.30
2023-09-25T21:11:55.873Z,18.30
2023-09-25T21:14:30.901Z,18.20
2023-09-25T21:17:05.251Z,18.30
2023-09-25T21:19:38.879Z,18.30
2023-09-25T21:22:12.709Z,18.20
2023-09-25T21:24:46.523Z,18.20
2023-09-25T21:27:20.836Z,18.20
2023-09-25T21:29:55.802Z,18.20
2023-09-25T21:32:29.456Z,18.20
2023-09-25T21:35:03.323Z,18.20
2023-09-25T21:37:37.120Z,18.20
2023-09-25T21:40:12.447Z,18.20
2023-09-25T21:42:46.072Z,18.20
2023-09-25T21:45:21.053Z,18.20
2023-09-25T21:47:54.578Z,18.20
2023-09-25T21:50:28.255Z,18.20
2023-09-25T21:53:01.774Z,18.20
2023-09-25T21:55:35.349Z,18.10
2023-09-25T21:58:09.257Z,18.10
2023-09-25T22:00:44.231Z,18.20
2023-09-25T22:03:18.157Z,18.20
2023-09-25T22:05:51.788Z,18.10
2023-09-25T22:08:26.307Z,18.10
2023-09-25T22:10:59.984Z,18.00
2023-09-25T22:13:33.624Z,18.00
2023-09-25T22:16:10.559Z,17.90
2023-09-25T22:18:44.351Z,17.90
2023-09-25T22:21:18.685Z,17.90
2023-09-25T22:23:52.383Z,17.90
2023-09-25T22:26:26.043Z,17.90
2023-09-25T22:28:59.611Z,17.90
2023-09-25T22:31:35.433Z,17.90
2023-09-25T22:34:09.269Z,17.90
2023-09-25T22:36:43.033Z,17.90
2023-09-25T22:39:17.041Z,17.90
2023-09-25T22:41:50.609Z,17.90
2023-09-25T22:44:24.402Z,17.90
2023-09-25T22:46:59.457Z,17.90
2023-09-25T22:49:33.236Z,17.90
2023-09-25T22:52:06.938Z,17.90
2023-09-25T22:54:40.535Z,17.80
2023-09-25T22:57:14.080Z,17.80
2023-09-25T22:59:47.576Z,17.80
2023-09-25T23:02:23.687Z,17.80
2023-09-25T23:04:57.296Z,17.70
2023-09-25T23:07:31.888Z,17.70
2023-09-25T23:10:06.298Z,17.70
2023-09-25T23:12:40.543Z,17.70
2023-09-25T23:15:16.266Z,17.70
2023-09-25T23:17:51.619Z,17.70
2023-09-25T23:20:26.272Z,17.70
2023-09-25T23:23:00.455Z,17.70
2023-09-25T23:25:34.008Z,17.70
2023-09-25T23:28:08.324Z,17.70
2023-09-25T23:30:42.013Z,17.70
2023-09-25T23:33:17.863Z,17.70
2023-09-25T23:35:51.494Z,17.70
2023-09-25T23:38:25.122Z,17.70
2023-09-25T23:40:58.678Z,17.70
2023-09-25T23:43:32.331Z,17.70
2023-09-25T23:46:06.349Z,17.70
2023-09-25T23:48:41.713Z,17.70
2023-09-25T23:51:15.602Z,17.70
2023-09-25T23:53:49.387Z,17.70
2023-09-25T23:56:23.064Z,17.60
2023-09-25T23:58:57.099Z,17.70
